Time;durP1;ratioP1;P1;durP2;ratioP2;P2;SDS_P1;SDS_P2;PMS_P1;PMS_P2;Temp;Humidity;BMP_temperature;BMP_pressure;BME280_temperature;BME280_humidity;BME280_pressure;Samples;Min_cycle;Max_cycle;Signal;HPM_P1;HPM_P2
2021/10/02 00:34:21;;;;;;;16.89;15.14;;;;;;;7.20;63.29;102462.31;460214;113;923356;-77
2021/10/02 00:36:16;;;;;;;16.90;15.29;;;;;;;7.24;63.31;102457.44;464186;113;922528;-76
2021/10/02 00:44:49;;;;;;;15.14;13.65;;;;;;;7.21;62.79;102458.60;461117;111;922849;-75
2021/10/02 00:45:53;;;;;;;15.42;13.94;;;;;;;7.19;62.85;102459.73;461498;113;922554;-75
2021/10/02 00:46:57;;;;;;;15.22;13.75;;;;;;;7.15;62.89;102456.47;463522;111;930393;-75
2021/10/02 00:48:00;;;;;;;19.07;13.39;;;;;;;7.13;62.95;102458.47;461175;112;922408;-77
2021/10/02 00:49:04;;;;;;;15.43;13.59;;;;;;;7.11;62.92;102458.61;464664;111;922681;-76
2021/10/02 00:50:08;;;;;;;15.79;14.35;;;;;;;7.10;62.94;102462.34;464483;113;930143;-75
2021/10/02 00:51:13;;;;;;;15.81;14.38;;;;;;;7.09;63.02;102457.92;450795;114;923025;-77
2021/10/02 00:52:18;;;;;;;15.50;13.99;;;;;;;7.10;63.01;102462.34;461195;112;922515;-75
2021/10/02 00:53:23;;;;;;;29.82;14.88;;;;;;;7.08;62.97;102456.20;467039;112;922857;-75
2021/10/02 00:54:26;;;;;;;24.88;13.70;;;;;;;7.08;62.93;102458.91;459634;113;922497;-76
2021/10/02 00:55:30;;;;;;;17.35;13.24;;;;;;;7.06;62.95;102458.19;463570;111;922413;-76
2021/10/02 00:56:34;;;;;;;18.43;13.73;;;;;;;7.04;62.98;102460.22;461860;111;925357;-76
2021/10/02 00:57:38;;;;;;;14.33;13.11;;;;;;;7.03;63.02;102458.50;461240;111;922389;-78
2021/10/02 00:58:46;;;;;;;14.50;13.01;;;;;;;7.01;63.04;102460.48;458693;113;922844;-75
2021/10/02 00:59:48;;;;;;;14.44;13.23;;;;;;;7.02;63.07;102458.63;462085;110;930300;-76
2021/10/02 01:00:55;;;;;;;14.61;13.29;;;;;;;7.00;63.01;102463.38;460841;112;922634;-75
2021/10/02 01:02:08;;;;;;;14.32;13.02;;;;;;;6.97;63.06;102459.08;459602;113;923056;-76
2021/10/02 01:03:38;;;;;;;13.87;12.56;;;;;;;6.95;63.10;102461.06;464618;113;922469;-76
2021/10/02 01:05:04;;;;;;;13.53;12.08;;;;;;;7.05;63.16;102456.50;471858;110;947334;-75
2021/10/02 01:06:36;;;;;;;14.10;12.75;;;;;;;6.94;63.18;102461.23;461770;113;922699;-76
2021/10/02 01:07:44;;;;;;;;;;;;;;;6.92;63.29;102461.38;464528;113;922045;-76
2021/10/02 01:09:07;;;;;;;12.79;11.36;;;;;;;6.92;63.50;102464.09;452747;116;922445;-76
2021/10/02 01:10:27;;;;;;;14.73;12.76;;;;;;;6.91;63.56;102454.23;454220;116;922904;-76
2021/10/02 01:11:37;;;;;;;15.09;13.26;;;;;;;6.92;63.63;102460.52;454825;116;923004;-76
2021/10/02 01:13:05;;;;;;;14.56;13.11;;;;;;;6.91;63.65;102454.23;454383;116;922603;-76
2021/10/02 01:14:28;;;;;;;12.29;11.25;;;;;;;6.92;63.66;102453.23;455700;116;922526;-76
2021/10/02 01:15:53;;;;;;;13.34;12.13;;;;;;;6.92;63.59;102449.67;454141;116;922635;-76
2021/10/02 01:17:00;;;;;;;12.37;10.97;;;;;;;6.91;63.60;102442.53;450003;116;922668;-75
2021/10/02 01:18:10;;;;;;;13.02;11.97;;;;;;;6.90;63.63;102451.66;455060;116;922659;-76
2021/10/02 01:19:45;;;;;;;13.53;12.21;;;;;;;6.90;63.71;102455.23;454912;116;922554;-75
2021/10/02 01:20:59;;;;;;;12.88;11.69;;;;;;;6.92;63.78;102452.38;454113;116;924018;-75
2021/10/02 01:22:21;;;;;;;13.18;12.08;;;;;;;6.94;63.83;102456.67;449475;116;922601;-75
2021/10/02 01:23:43;;;;;;;14.26;12.73;;;;;;;6.96;63.84;102454.65;453424;116;922630;-75
2021/10/02 01:25:24;;;;;;;15.59;12.67;;;;;;;6.98;63.78;102449.95;453658;116;922548;-76
2021/10/02 01:26:29;;;;;;;;;;;;;;;7.00;63.69;102457.95;457800;116;922023;-75
2021/10/02 01:27:54;;;;;;;13.23;11.83;;;;;;;7.01;63.61;102451.50;452777;116;922349;-76
2021/10/02 01:29:01;;;;;;;14.46;13.08;;;;;;;6.99;63.64;102456.23;453962;116;922574;-76
2021/10/02 01:30:13;;;;;;;14.93;13.63;;;;;;;6.97;63.58;102448.23;454788;116;922529;-76
2021/10/02 01:31:29;;;;;;;13.61;11.95;;;;;;;6.97;63.53;102452.80;453745;116;922803;-76
2021/10/02 01:32:36;;;;;;;14.14;12.30;;;;;;;6.96;63.54;102449.22;452620;116;922794;-75
2021/10/02 01:33:58;;;;;;;13.27;12.02;;;;;;;6.98;63.46;102449.09;452129;116;922615;-76
2021/10/02 01:35:22;;;;;;;15.10;12.32;;;;;;;6.98;63.45;102449.95;451316;116;922528;-75
2021/10/02 01:47:06;;;;;;;12.44;11.29;;;;;;;7.00;63.26;102456.06;454654;116;922582;-75
2021/10/02 01:47:19;;;;;;;12.51;11.28;;;;;;;6.97;63.17;102460.94;455283;116;922632;-76
2021/10/02 01:48:24;;;;;;;14.19;11.88;;;;;;;6.96;63.12;102459.22;455605;116;922995;-75
2021/10/02 01:49:29;;;;;;;12.49;11.34;;;;;;;6.94;63.05;102453.96;453784;116;922536;-76
2021/10/02 01:50:37;;;;;;;12.21;10.84;;;;;;;6.93;63.02;102456.81;456428;116;922696;-76
2021/10/02 01:51:43;;;;;;;12.57;11.44;;;;;;;6.89;62.97;102458.94;454050;116;923135;-75
2021/10/02 01:52:48;;;;;;;13.67;11.71;;;;;;;6.87;62.99;102458.24;453977;116;922571;-77
2021/10/02 01:53:54;;;;;;;12.84;11.44;;;;;;;6.85;62.91;102460.23;454316;116;922588;-76
2021/10/02 01:55:00;;;;;;;13.79;11.21;;;;;;;6.82;62.86;102462.39;454199;116;922593;-75
2021/10/02 01:56:05;;;;;;;13.35;11.39;;;;;;;6.76;62.84;102466.53;453828;116;923127;-76
2021/10/02 01:57:09;;;;;;;12.53;11.32;;;;;;;6.71;63.03;102463.40;451392;116;922682;-76
2021/10/02 01:58:15;;;;;;;15.03;11.20;;;;;;;6.69;63.10;102466.25;455028;116;923274;-75
2021/10/02 01:59:20;;;;;;;12.96;11.78;;;;;;;6.67;63.11;102468.23;456349;116;922945;-76
2021/10/02 02:00:24;;;;;;;12.51;11.22;;;;;;;6.65;63.17;102463.97;452712;116;923086;-75
2021/10/02 02:01:29;;;;;;;13.05;11.29;;;;;;;6.64;63.21;102464.97;452025;116;922492;-76
2021/10/02 02:02:35;;;;;;;12.14;10.89;;;;;;;6.63;63.28;102468.67;456215;116;922947;-75
2021/10/02 02:03:41;;;;;;;13.36;11.45;;;;;;;6.63;63.36;102471.38;455487;116;923020;-76
2021/10/02 02:04:46;;;;;;;11.83;10.68;;;;;;;6.64;63.49;102471.25;452015;115;923119;-76
2021/10/02 02:05:51;;;;;;;11.76;10.76;;;;;;;6.66;63.57;102466.55;451644;116;922473;-76
2021/10/02 02:06:58;;;;;;;14.05;11.50;;;;;;;6.69;63.64;102468.95;452483;117;922471;-76
2021/10/02 02:08:05;;;;;;;11.86;10.91;;;;;;;6.72;63.66;102470.54;451516;117;922813;-76
2021/10/02 02:09:11;;;;;;;10.69;9.78;;;;;;;6.75;63.64;102462.11;451221;116;922510;-76
2021/10/02 02:10:17;;;;;;;13.36;9.98;;;;;;;6.80;63.66;102461.66;451630;117;922671;-76
2021/10/02 02:11:21;;;;;;;10.56;9.68;;;;;;;6.83;63.62;102467.67;451675;117;922903;-75
2021/10/02 02:12:35;;;;;;;11.47;10.41;;;;;;;6.86;63.58;102464.66;451276;116;922900;-76
2021/10/02 02:13:36;;;;;;;11.67;10.11;;;;;;;6.90;63.51;102463.36;450990;117;922698;-76
2021/10/02 02:14:41;;;;;;;11.09;9.62;;;;;;;6.92;63.51;102455.95;452073;115;923105;-76
2021/10/02 02:15:46;;;;;;;11.14;10.07;;;;;;;6.95;63.48;102457.50;451594;115;923094;-76
2021/10/02 02:16:51;;;;;;;10.68;9.78;;;;;;;6.97;63.46;102458.22;451406;117;923119;-76
2021/10/02 02:18:01;;;;;;;11.29;10.16;;;;;;;6.98;63.42;102452.66;452155;117;922547;-76
2021/10/02 02:19:05;;;;;;;10.78;9.67;;;;;;;7.00;63.39;102461.48;450320;117;922594;-76
2021/10/02 02:20:12;;;;;;;10.78;9.95;;;;;;;7.00;63.33;102453.34;451965;116;922513;-75
2021/10/02 02:21:17;;;;;;;9.69;8.95;;;;;;;7.01;63.36;102455.06;450796;117;922774;-76
2021/10/02 02:22:22;;;;;;;10.18;9.29;;;;;;;7.01;63.31;102454.20;451817;117;922520;-76
2021/10/02 02:23:27;;;;;;;10.74;9.66;;;;;;;7.01;63.30;102457.77;441386;120;922450;-75
2021/10/02 02:24:32;;;;;;;10.59;9.67;;;;;;;7.02;63.33;102455.92;441777;120;922597;-76
2021/10/02 02:25:36;;;;;;;11.33;10.18;;;;;;;7.02;63.36;102450.50;441414;120;922673;-75
2021/10/02 02:26:40;;;;;;;10.70;9.70;;;;;;;7.03;63.37;102452.22;433792;120;922893;-76
2021/10/02 02:27:44;;;;;;;11.13;10.22;;;;;;;7.04;63.32;102452.08;428422;123;923185;-76
2021/10/02 02:28:48;;;;;;;12.27;10.04;;;;;;;7.05;63.33;102456.50;435466;121;922458;-76
2021/10/02 02:29:52;;;;;;;10.65;9.36;;;;;;;7.05;63.30;102447.52;435884;121;930847;-76
2021/10/02 02:30:57;;;;;;;10.71;9.78;;;;;;;7.04;63.30;102452.08;435210;121;922689;-76
2021/10/02 02:32:02;;;;;;;10.26;9.24;;;;;;;7.04;63.29;102449.37;436443;121;922986;-76
2021/10/02 02:33:07;;;;;;;11.46;10.51;;;;;;;7.04;63.27;102452.08;436961;121;922645;-76
2021/10/02 02:34:11;;;;;;;11.63;10.24;;;;;;;7.03;63.31;102452.22;435169;121;922646;-76
2021/10/02 02:35:14;;;;;;;11.08;10.15;;;;;;;7.04;63.36;102449.37;437133;121;930297;-76
2021/10/02 02:36:21;;;;;;;10.90;9.90;;;;;;;7.05;63.38;102450.22;436392;118;922638;-76
2021/10/02 02:37:24;;;;;;;10.70;9.88;;;;;;;7.05;63.35;102448.38;436808;121;923346;-76
2021/10/02 02:38:28;;;;;;;11.01;9.69;;;;;;;7.06;63.34;102447.34;437106;121;922641;-76
2021/10/02 02:39:32;;;;;;;12.99;9.39;;;;;;;7.06;63.35;102452.77;435188;121;930150;-76
2021/10/02 02:40:35;;;;;;;11.01;10.04;;;;;;;7.06;63.31;102447.34;436783;121;922452;-76
2021/10/02 02:41:41;;;;;;;11.77;9.60;;;;;;;7.07;63.37;102453.63;437299;121;930475;-75
2021/10/02 02:42:45;;;;;;;10.42;9.51;;;;;;;7.07;63.37;102446.34;436263;121;922574;-76
2021/10/02 02:43:49;;;;;;;10.88;9.88;;;;;;;7.08;63.31;102448.06;434963;121;923173;-76
2021/10/02 02:44:53;;;;;;;12.04;10.82;;;;;;;7.08;63.29;102450.77;437205;121;930553;-76
2021/10/02 02:46:05;;;;;;;12.58;11.30;;;;;;;7.09;63.22;102449.78;435019;121;922980;-76
2021/10/02 02:47:13;;;;;;;12.37;11.18;;;;;;;7.09;63.20;102443.50;436728;121;922710;-76
2021/10/02 02:48:22;;;;;;;11.83;10.72;;;;;;;7.08;63.12;102448.06;435190;121;923695;-76
2021/10/02 02:49:29;;;;;;;12.48;11.38;;;;;;;7.08;63.07;102447.20;436689;121;922658;-76
2021/10/02 02:50:36;;;;;;;10.64;9.76;;;;;;;7.07;63.03;102451.77;435633;121;923024;-76
2021/10/02 02:51:52;;;;;;;11.08;10.06;;;;;;;7.06;62.96;102450.05;429077;121;923006;-76
2021/10/02 02:53:11;;;;;;;11.38;10.34;;;;;;;7.06;62.95;102446.48;435810;121;923001;-76
2021/10/02 02:54:21;;;;;;;11.92;10.62;;;;;;;7.05;62.92;102456.50;435567;120;922684;-76
2021/10/02 02:55:31;;;;;;;10.21;9.39;;;;;;;7.03;62.82;102450.36;435968;121;922664;-76
2021/10/02 02:56:42;;;;;;;12.98;9.83;;;;;;;7.01;62.80;102444.22;436771;121;923315;-76
2021/10/02 02:57:55;;;;;;;9.99;9.12;;;;;;;7.00;62.88;102447.09;435380;121;923053;-76
2021/10/02 02:59:02;;;;;;;11.27;10.23;;;;;;;6.98;62.88;102449.95;436020;121;922615;-76
2021/10/02 03:00:10;;;;;;;10.99;9.84;;;;;;;6.96;62.88;102445.66;434941;121;923122;-76
2021/10/02 03:01:15;;;;;;;10.61;9.70;;;;;;;6.94;62.93;102448.53;435585;121;923044;-76
2021/10/02 03:02:20;;;;;;;11.69;10.59;;;;;;;6.94;62.92;102453.96;434738;121;922914;-78
2021/10/02 03:03:31;;;;;;;11.62;10.58;;;;;;;6.93;62.96;102452.24;436129;121;923045;-77
2021/10/02 03:04:36;;;;;;;11.66;10.35;;;;;;;6.93;63.00;102454.95;435649;118;923028;-77
2021/10/02 03:05:41;;;;;;;12.74;11.53;;;;;;;6.92;62.95;102444.25;441484;118;922598;-76
2021/10/02 03:06:51;;;;;;;12.09;10.34;;;;;;;6.90;62.98;102449.80;443298;118;923074;-76
2021/10/02 03:08:10;;;;;;;12.11;10.79;;;;;;;6.90;62.97;102455.23;439114;120;922641;-77
2021/10/02 03:09:15;;;;;;;12.88;11.69;;;;;;;6.89;62.98;102458.11;441125;118;922992;-77
2021/10/02 03:10:20;;;;;;;11.74;10.57;;;;;;;6.87;63.08;102452.82;437695;120;922725;-76
2021/10/02 03:11:26;;;;;;;12.79;11.58;;;;;;;6.86;63.06;102456.53;443000;119;922743;-77
2021/10/02 03:12:33;;;;;;;11.82;10.86;;;;;;;6.87;63.10;102457.38;444628;119;923284;-77
2021/10/02 03:13:39;;;;;;;11.22;10.25;;;;;;;6.86;63.11;102459.23;441210;119;923131;-76
2021/10/02 03:14:45;;;;;;;11.51;10.41;;;;;;;6.85;63.15;102456.66;443686;119;922944;-77
2021/10/02 03:15:49;;;;;;;13.38;10.59;;;;;;;6.85;63.21;102457.52;442143;119;922862;-76
2021/10/02 03:16:54;;;;;;;12.20;10.85;;;;;;;6.83;63.23;102459.55;442516;119;922684;-76
2021/10/02 03:17:58;;;;;;;11.62;10.66;;;;;;;6.83;63.25;102456.83;444309;119;922903;-77
2021/10/02 03:19:05;;;;;;;11.87;10.67;;;;;;;6.84;63.32;102457.66;443175;119;922631;-76
2021/10/02 03:20:12;;;;;;;11.09;10.02;;;;;;;6.85;63.37;102453.95;445175;119;930051;-76
2021/10/02 03:21:17;;;;;;;10.86;9.92;;;;;;;6.85;63.37;102453.95;442660;119;922540;-76
2021/10/02 03:22:21;;;;;;;11.95;10.96;;;;;;;6.84;63.35;102447.67;442449;119;922501;-76
2021/10/02 03:23:29;;;;;;;11.54;9.94;;;;;;;6.83;63.30;102448.70;443697;119;922645;-77
2021/10/02 03:24:33;;;;;;;10.83;10.01;;;;;;;6.82;63.31;102449.69;442862;119;923155;-77
2021/10/02 03:25:38;;;;;;;11.61;9.74;;;;;;;6.82;63.30;102454.25;441845;119;922567;-76
2021/10/02 03:26:43;;;;;;;13.62;10.67;;;;;;;6.81;63.35;102458.82;439858;119;922711;-76
2021/10/02 03:27:47;;;;;;;11.51;9.98;;;;;;;6.81;63.41;102463.38;444470;119;922662;-75
2021/10/02 03:28:51;;;;;;;12.70;10.98;;;;;;;6.81;63.44;102453.40;444793;119;930479;-76
2021/10/02 03:29:56;;;;;;;11.56;10.55;;;;;;;6.80;63.45;102457.10;441612;118;922548;-77
2021/10/02 03:31:00;;;;;;;12.03;10.79;;;;;;;6.82;63.48;102459.68;446469;118;930049;-76
2021/10/02 03:32:05;;;;;;;9.58;8.79;;;;;;;6.82;63.49;102465.96;437743;120;922516;-77
2021/10/02 03:33:12;;;;;;;10.87;9.90;;;;;;;6.83;63.55;102461.39;438795;118;931150;-76
2021/10/02 03:34:17;;;;;;;12.64;9.72;;;;;;;6.83;63.50;102455.97;444085;118;922408;-76
2021/10/02 03:35:21;;;;;;;10.91;10.01;;;;;;;6.84;63.41;102457.66;447468;118;922840;-75
2021/10/02 03:36:25;;;;;;;10.67;9.31;;;;;;;6.82;63.41;102460.53;447006;118;923250;-76
2021/10/02 03:37:29;;;;;;;10.05;9.10;;;;;;;6.82;63.42;102460.53;446191;118;922750;-76
2021/10/02 03:38:33;;;;;;;11.20;9.59;;;;;;;6.82;63.45;102459.68;448037;118;922485;-75
2021/10/02 03:39:37;;;;;;;10.27;9.38;;;;;;;6.81;63.51;102464.24;446574;118;922498;-76
2021/10/02 03:40:41;;;;;;;9.72;8.81;;;;;;;6.83;63.48;102461.39;438771;120;923066;-76
2021/10/02 03:42:04;;;;;;;9.14;8.29;;;;;;;6.84;63.48;102458.52;442974;118;923072;-75
2021/10/02 03:43:08;;;;;;;10.97;9.97;;;;;;;6.85;63.45;102468.37;441240;120;930643;-76
2021/10/02 03:44:12;;;;;;;10.81;9.81;;;;;;;6.85;63.42;102459.38;441559;120;922493;-76
2021/10/02 03:45:16;;;;;;;10.20;9.24;;;;;;;6.85;63.43;102464.80;442528;118;931060;-76
2021/10/02 03:46:21;;;;;;;11.15;9.85;;;;;;;6.85;63.46;102459.38;439261;120;930542;-76
2021/10/02 03:47:25;;;;;;;12.01;10.03;;;;;;;6.86;63.48;102467.37;442172;119;922948;-76
2021/10/02 03:48:29;;;;;;;12.01;10.16;;;;;;;6.87;63.48;102457.38;443117;118;923077;-76
2021/10/02 03:49:32;;;;;;;14.35;10.93;;;;;;;6.87;63.40;102457.38;442486;118;922639;-76
2021/10/02 03:50:36;;;;;;;12.26;11.18;;;;;;;6.88;63.37;102454.54;443573;119;923003;-76
2021/10/02 03:51:39;;;;;;;14.13;11.43;;;;;;;6.88;63.40;102446.41;440264;119;922640;-76
2021/10/02 03:52:45;;;;;;;13.58;12.36;;;;;;;6.88;63.37;102446.41;436047;120;923013;-76
2021/10/02 03:53:48;;;;;;;13.64;12.39;;;;;;;6.89;63.33;102448.09;438265;120;922319;-76
2021/10/02 03:54:52;;;;;;;17.89;14.56;;;;;;;6.89;63.29;102453.52;436301;120;922464;-76
2021/10/02 03:55:57;;;;;;;13.50;11.80;;;;;;;6.90;63.24;102448.95;436886;120;930611;-75
2021/10/02 03:57:02;;;;;;;13.08;11.91;;;;;;;6.90;63.23;102448.95;440846;118;923091;-76
2021/10/02 03:58:05;;;;;;;15.02;13.73;;;;;;;6.90;63.20;102452.52;443408;119;922481;-76
2021/10/02 03:59:09;;;;;;;16.79;15.24;;;;;;;6.90;63.16;102452.52;442592;119;922489;-76
2021/10/02 04:00:14;;;;;;;14.81;13.41;;;;;;;6.91;63.13;102451.52;438807;120;930468;-76
2021/10/02 04:01:17;;;;;;;13.15;11.99;;;;;;;6.91;63.09;102450.66;441679;119;922447;-75
2021/10/02 04:02:21;;;;;;;16.73;14.17;;;;;;;6.92;63.10;102455.09;441070;120;930421;-75
2021/10/02 04:03:24;;;;;;;15.71;12.72;;;;;;;6.93;63.06;102456.81;436817;120;930253;-77
2021/10/02 04:04:28;;;;;;;13.18;11.90;;;;;;;6.93;63.01;102462.23;438377;120;930314;-77
2021/10/02 04:05:31;;;;;;;13.89;12.49;;;;;;;6.92;62.96;102455.09;440091;119;930351;-76
2021/10/02 04:06:36;;;;;;;14.10;12.74;;;;;;;6.93;62.92;102459.52;452471;116;922522;-76
2021/10/02 04:07:39;;;;;;;15.34;13.50;;;;;;;6.92;62.94;102461.38;453958;116;922486;-77
2021/10/02 04:08:43;;;;;;;16.52;13.68;;;;;;;6.93;62.91;102459.52;453858;116;930379;-77
2021/10/02 04:09:47;;;;;;;16.52;14.72;;;;;;;6.92;62.89;102464.09;454500;116;922554;-76
2021/10/02 04:10:52;;;;;;;18.03;14.87;;;;;;;6.92;62.88;102466.80;454682;116;923053;-76
2021/10/02 04:11:55;;;;;;;16.23;14.32;;;;;;;6.92;62.87;102455.95;453977;116;922537;-77
2021/10/02 04:12:59;;;;;;;15.87;13.91;;;;;;;6.93;62.92;102459.52;452443;116;922863;-76
2021/10/02 04:14:03;;;;;;;17.99;13.68;;;;;;;6.93;62.94;102479.36;453050;116;930300;-77
2021/10/02 04:15:07;;;;;;;17.56;13.24;;;;;;;6.94;62.96;102470.23;452510;116;922724;-75
2021/10/02 04:16:11;;;;;;;15.75;13.45;;;;;;;6.94;62.98;102470.23;454592;116;930461;-75
2021/10/02 04:17:15;;;;;;;14.27;12.86;;;;;;;6.96;62.96;102475.48;455249;116;930242;-75
2021/10/02 04:18:18;;;;;;;14.03;12.71;;;;;;;6.96;62.99;102470.06;455438;116;930351;-77
2021/10/02 04:19:21;;;;;;;12.83;11.56;;;;;;;6.96;63.02;102472.77;451463;116;922565;-76
2021/10/02 04:20:27;;;;;;;12.77;11.26;;;;;;;6.97;63.08;102471.78;455935;116;930331;-77
2021/10/02 04:21:30;;;;;;;13.59;11.68;;;;;;;6.98;63.10;102473.49;453473;116;922595;-76
2021/10/02 04:22:35;;;;;;;13.22;11.91;;;;;;;6.97;63.11;102472.64;454678;116;930284;-77
2021/10/02 04:23:38;;;;;;;12.20;11.00;;;;;;;6.97;63.10;102472.64;454098;116;930368;-77
2021/10/02 04:24:42;;;;;;;12.88;11.73;;;;;;;6.98;63.18;102482.49;454793;116;922978;-76
2021/10/02 04:25:45;;;;;;;12.11;11.11;;;;;;;6.98;63.22;102476.20;451780;116;930425;-76
2021/10/02 04:26:52;;;;;;;12.30;10.94;;;;;;;6.98;63.28;102468.93;452566;116;930354;-76
2021/10/02 04:27:55;;;;;;;12.68;10.51;;;;;;;6.99;63.32;102475.21;453103;116;922605;-76
2021/10/02 04:28:59;;;;;;;12.93;10.53;;;;;;;7.01;63.33;102470.48;452990;116;922985;-76
2021/10/02 04:30:05;;;;;;;10.74;9.82;;;;;;;7.01;63.34;102482.19;452188;116;930163;-75
2021/10/02 04:31:08;;;;;;;12.07;10.18;;;;;;;7.03;63.35;102474.77;452265;116;922472;-76
2021/10/02 04:32:12;;;;;;;11.68;10.41;;;;;;;7.03;63.36;102476.63;448406;117;922968;-77
2021/10/02 04:33:15;;;;;;;11.39;10.39;;;;;;;7.06;63.36;102479.03;447548;116;930409;-75
2021/10/02 04:34:19;;;;;;;13.14;10.55;;;;;;;7.07;63.36;102476.19;444384;118;925764;-76
2021/10/02 04:35:23;;;;;;;12.65;10.06;;;;;;;7.08;63.34;102479.75;445813;116;922802;-76
2021/10/02 04:36:28;;;;;;;12.86;10.78;;;;;;;7.10;63.35;102480.48;455075;116;922487;-77
2021/10/02 04:37:32;;;;;;;12.74;10.92;;;;;;;7.11;63.34;102474.05;454607;116;922649;-77
2021/10/02 04:38:35;;;;;;;12.01;10.92;;;;;;;7.12;63.28;102484.73;454585;116;930369;-78
2021/10/02 04:39:39;;;;;;;11.48;10.54;;;;;;;7.13;63.28;102475.60;453982;116;922767;-78
2021/10/02 04:40:43;;;;;;;11.93;9.64;;;;;;;7.15;63.29;102471.89;453278;116;922642;-78
2021/10/02 04:41:46;;;;;;;11.06;10.12;;;;;;;7.16;63.30;102473.61;455000;116;930516;-76
2021/10/02 04:42:50;;;;;;;12.07;10.64;;;;;;;7.18;63.33;102479.72;452269;116;922525;-76
2021/10/02 04:43:54;;;;;;;10.85;9.59;;;;;;;7.19;63.32;102476.02;453294;116;922639;-76
2021/10/02 04:44:57;;;;;;;11.56;9.42;;;;;;;7.20;63.30;102478.59;445006;117;923038;-77
2021/10/02 04:46:02;;;;;;;10.56;9.34;;;;;;;7.21;63.31;102477.59;446361;116;922788;-76
2021/10/02 04:47:06;;;;;;;11.08;9.99;;;;;;;7.23;63.31;102478.28;453148;116;930514;-76
2021/10/02 04:48:09;;;;;;;11.21;10.03;;;;;;;7.23;63.28;102472.86;454471;116;922603;-77
2021/10/02 04:49:13;;;;;;;10.91;9.96;;;;;;;7.25;63.25;102483.57;454878;116;930113;-76
2021/10/02 04:50:17;;;;;;;9.65;8.76;;;;;;;7.25;63.25;102484.42;453099;116;930814;-76
2021/10/02 04:51:21;;;;;;;10.41;9.53;;;;;;;7.25;63.26;102476.29;453841;116;922542;-77
2021/10/02 04:52:24;;;;;;;12.69;11.63;;;;;;;7.26;63.31;102477.15;454561;116;922726;-78
2021/10/02 04:53:28;;;;;;;11.98;10.77;;;;;;;7.27;63.31;102477.01;453815;116;930289;-77
2021/10/02 04:54:31;;;;;;;11.92;10.65;;;;;;;7.28;63.36;102475.13;452243;116;930332;-77
2021/10/02 04:55:35;;;;;;;9.78;8.73;;;;;;;7.28;63.36;102477.84;452606;116;922581;-75
2021/10/02 04:56:40;;;;;;;9.75;8.86;;;;;;;7.28;63.37;102481.41;454985;116;930666;-76
2021/10/02 04:57:43;;;;;;;9.63;8.68;;;;;;;7.28;63.38;102475.98;452924;116;922629;-77
2021/10/02 04:58:47;;;;;;;10.40;8.86;;;;;;;7.30;63.43;102475.84;453329;116;922837;-77
2021/10/02 04:59:51;;;;;;;12.02;9.44;;;;;;;7.31;63.50;102477.56;455048;116;922470;-76
2021/10/02 05:00:55;;;;;;;9.78;8.54;;;;;;;7.33;63.51;102480.99;443036;117;922659;-77
2021/10/02 05:01:59;;;;;;;10.03;8.95;;;;;;;7.34;63.56;102477.25;440813;118;922817;-77
2021/10/02 05:03:03;;;;;;;9.31;8.50;;;;;;;7.35;63.58;102482.53;440575;118;922359;-79
2021/10/02 05:04:07;;;;;;;14.75;9.03;;;;;;;7.36;63.58;102476.11;446117;116;922628;-77
2021/10/02 05:05:10;;;;;;;9.51;8.61;;;;;;;7.38;63.57;102481.41;452356;116;922478;-78
2021/10/02 05:06:14;;;;;;;9.92;8.72;;;;;;;7.41;63.60;102483.80;450208;116;930521;-77
2021/10/02 05:07:18;;;;;;;10.28;8.99;;;;;;;7.42;63.59;102480.95;450734;117;922708;-78
2021/10/02 05:08:21;;;;;;;8.99;8.37;;;;;;;7.45;63.59;102482.50;451625;116;922975;-76
2021/10/02 05:09:24;;;;;;;10.51;9.41;;;;;;;7.48;63.60;102484.94;451660;116;922527;-78
2021/10/02 05:10:29;;;;;;;11.09;9.60;;;;;;;7.49;63.61;102489.37;451349;117;922599;-78
2021/10/02 05:11:33;;;;;;;10.71;9.74;;;;;;;7.51;63.64;102481.91;450075;116;922560;-77
2021/10/02 05:12:36;;;;;;;10.48;9.46;;;;;;;7.52;63.62;102484.48;449883;116;922673;-76
2021/10/02 05:13:40;;;;;;;12.63;9.55;;;;;;;7.55;63.61;102488.77;450214;116;922787;-77
2021/10/02 05:14:43;;;;;;;9.49;8.62;;;;;;;7.57;63.63;102478.60;451414;117;930436;-77
2021/10/02 05:15:47;;;;;;;9.94;9.07;;;;;;;7.58;63.66;102488.46;452638;117;930501;-78
2021/10/02 05:16:52;;;;;;;9.69;8.89;;;;;;;7.60;63.65;102483.75;450202;117;922614;-77
2021/10/02 05:17:56;;;;;;;13.86;12.58;;;;;;;7.62;63.67;102483.58;434590;120;922727;-78
2021/10/02 05:18:59;;;;;;;13.01;11.97;;;;;;;7.63;63.67;102485.30;436198;117;922660;-78
2021/10/02 05:20:04;;;;;;;10.31;9.31;;;;;;;7.65;63.64;102483.30;451264;117;922753;-78
2021/10/02 05:21:08;;;;;;;10.64;9.42;;;;;;;7.66;63.64;102482.30;450700;117;923201;-78
2021/10/02 05:22:11;;;;;;;10.13;9.04;;;;;;;7.66;63.65;102483.16;450870;117;922748;-77
2021/10/02 05:23:15;;;;;;;11.99;9.34;;;;;;;7.68;63.68;102482.98;450352;117;930585;-77
2021/10/02 05:24:18;;;;;;;10.98;9.97;;;;;;;7.70;63.71;102480.98;450470;117;922864;-77
2021/10/02 05:25:21;;;;;;;9.61;8.88;;;;;;;7.71;63.71;102480.84;451812;117;930305;-77
2021/10/02 05:26:26;;;;;;;10.28;9.45;;;;;;;7.73;63.66;102477.95;450916;117;923581;-78
2021/10/02 05:27:29;;;;;;;11.04;9.30;;;;;;;7.73;63.67;102481.53;451142;117;922752;-78
2021/10/02 05:28:33;;;;;;;10.45;9.67;;;;;;;7.75;63.69;102486.82;450164;117;922431;-77
2021/10/02 05:29:39;;;;;;;10.88;9.88;;;;;;;7.76;63.71;102475.82;452217;117;923084;-77
2021/10/02 05:30:43;;;;;;;12.71;10.15;;;;;;;7.78;63.70;102481.08;451572;117;922664;-77
2021/10/02 05:31:48;;;;;;;10.53;9.53;;;;;;;7.80;63.77;102484.51;452621;117;922633;-76
2021/10/02 05:32:51;;;;;;;10.22;9.16;;;;;;;7.81;63.82;102484.37;450502;117;930444;-77
2021/10/02 05:33:54;;;;;;;11.10;10.10;;;;;;;7.83;63.87;102484.19;450972;117;922738;-77
2021/10/02 05:34:58;;;;;;;10.71;9.71;;;;;;;7.85;63.89;102482.20;452254;117;930046;-76
2021/10/02 05:36:04;;;;;;;10.04;9.30;;;;;;;7.86;63.89;102484.77;450723;117;922904;-78
2021/10/02 05:37:09;;;;;;;10.18;9.38;;;;;;;7.89;63.88;102483.59;451066;117;930548;-77
2021/10/02 05:38:13;;;;;;;13.09;11.91;;;;;;;7.90;63.85;102483.45;451236;117;923273;-77
2021/10/02 05:39:17;;;;;;;9.98;9.16;;;;;;;7.92;63.82;102484.16;451401;117;930414;-77
2021/10/02 05:40:21;;;;;;;10.59;9.53;;;;;;;7.94;63.81;102479.42;452254;117;922685;-77
2021/10/02 05:41:25;;;;;;;10.48;9.23;;;;;;;7.96;63.72;102479.27;443953;118;922695;-77
2021/10/02 05:42:28;;;;;;;10.01;8.81;;;;;;;7.98;63.75;102477.27;444090;117;930583;-79
2021/10/02 05:43:32;;;;;;;10.49;9.28;;;;;;;7.99;63.73;102484.42;451352;117;923014;-78
2021/10/02 05:44:36;;;;;;;10.71;9.66;;;;;;;8.01;63.71;102487.82;450147;117;930477;-77
2021/10/02 05:45:39;;;;;;;10.00;8.76;;;;;;;8.02;63.72;102483.25;450831;117;922543;-75
2021/10/02 05:46:43;;;;;;;9.47;8.63;;;;;;;8.04;63.71;102483.96;451522;116;922959;-77
2021/10/02 05:47:47;;;;;;;10.47;9.49;;;;;;;8.05;63.76;102483.78;452502;117;930580;-77
2021/10/02 05:48:51;;;;;;;10.01;9.11;;;;;;;8.06;63.83;102484.64;451130;117;922920;-77
2021/10/02 05:49:54;;;;;;;9.05;8.32;;;;;;;8.08;63.83;102485.36;450667;115;922319;-79
2021/10/02 05:50:58;;;;;;;10.86;9.96;;;;;;;8.09;63.84;102485.22;451068;116;930591;-77
2021/10/02 05:52:01;;;;;;;11.09;10.13;;;;;;;8.11;63.80;102480.47;450148;116;930549;-78
2021/10/02 05:53:06;;;;;;;11.36;10.45;;;;;;;8.13;63.68;102485.75;450786;116;922660;-78
2021/10/02 05:54:10;;;;;;;12.17;8.79;;;;;;;8.14;63.63;102488.33;451105;117;922664;-79
2021/10/02 05:55:15;;;;;;;11.59;9.56;;;;;;;8.15;63.65;102492.77;441295;119;925314;-78